createdAt,value
2023-04-28T00:01:16.758Z,97155.84
2023-04-28T00:03:43.582Z,97149.09
2023-04-28T00:06:11.331Z,97155.94
2023-04-28T00:08:37.964Z,97147.34
2023-04-28T00:11:08.981Z,97142.94
2023-04-28T00:13:35.688Z,97138.63
2023-04-28T00:16:02.302Z,97154.72
2023-04-28T00:18:29.120Z,97153.88
2023-04-28T00:20:56.480Z,97161.09
2023-04-28T00:23:23.048Z,97159.66
2023-04-28T00:25:53.529Z,97149.28
2023-04-28T00:28:32.950Z,97146.78
2023-04-28T00:31:00.414Z,97149.41
2023-04-28T00:33:26.882Z,97150.41
2023-04-28T00:36:02.538Z,97156.25
2023-04-28T00:38:29.121Z,97144.03
2023-04-28T00:40:55.701Z,97148.31
2023-04-28T00:43:22.251Z,97136.97
2023-04-28T00:45:52.314Z,97152.25
2023-04-28T00:48:19.471Z,97144.25
2023-04-28T00:50:47.661Z,97138.19
2023-04-28T00:53:14.649Z,97137.28
2023-04-28T00:55:41.356Z,97133.88
2023-04-28T00:58:09.463Z,97130.50
2023-04-28T01:00:36.021Z,97127.81
2023-04-28T01:03:03.166Z,97118.09
2023-04-28T01:05:30.638Z,97117.09
2023-04-28T01:07:57.235Z,97117.88
2023-04-28T01:10:23.697Z,97123.94
2023-04-28T01:12:50.336Z,97127.47
2023-04-28T01:15:20.131Z,97118.19
2023-04-28T01:17:47.443Z,97118.44
2023-04-28T01:20:14.785Z,97111.72
2023-04-28T01:22:41.551Z,97124.97
2023-04-28T01:25:08.398Z,97120.81
2023-04-28T01:27:35.074Z,97128.56
2023-04-28T01:30:01.586Z,97119.56
2023-04-28T01:32:28.212Z,97120.28
2023-04-28T01:34:54.748Z,97120.06
2023-04-28T01:37:21.330Z,97115.50
2023-04-28T01:39:47.834Z,97113.66
2023-04-28T01:42:14.328Z,97115.34
2023-04-28T01:44:41.243Z,97114.47
2023-04-28T01:47:07.772Z,97101.31
2023-04-28T01:49:34.326Z,97106.56
2023-04-28T01:52:00.899Z,97113.47
2023-04-28T01:54:27.992Z,97108.25
2023-04-28T01:56:54.540Z,97110.88
2023-04-28T01:59:21.115Z,97108.25
2023-04-28T02:01:47.703Z,97113.66
2023-04-28T02:04:14.451Z,97111.22
2023-04-28T02:06:41.134Z,97112.22
2023-04-28T02:09:07.652Z,97111.13
2023-04-28T02:11:34.145Z,97109.72
2023-04-28T02:14:00.675Z,97112.00
2023-04-28T02:16:27.332Z,97113.53
2023-04-28T02:18:53.976Z,97110.00
2023-04-28T02:21:20.470Z,97095.56
2023-04-28T02:23:47.539Z,97093.25
2023-04-28T02:26:14.574Z,97095.03
2023-04-28T02:28:41.132Z,97100.31
2023-04-28T02:31:09.417Z,97096.72
2023-04-28T02:33:36.742Z,97102.53
2023-04-28T02:36:05.019Z,97104.75
2023-04-28T02:38:31.952Z,97105.28
2023-04-28T02:41:05.555Z,97098.31
2023-04-28T02:43:33.160Z,97102.06
2023-04-28T02:45:59.745Z,97098.84
2023-04-28T02:48:27.313Z,97098.25
2023-04-28T02:50:53.867Z,97098.56
2023-04-28T02:53:21.181Z,97098.03
2023-04-28T02:55:48.175Z,97098.19
2023-04-28T02:58:15.264Z,97099.97
2023-04-28T03:00:41.778Z,97091.13
2023-04-28T03:03:08.344Z,97088.19
2023-04-28T03:05:34.913Z,97076.72
2023-04-28T03:08:01.716Z,97078.47
2023-04-28T03:10:28.228Z,97071.50
2023-04-28T03:12:54.780Z,97072.25
2023-04-28T03:15:21.476Z,97071.34
2023-04-28T03:17:48.039Z,97071.94
2023-04-28T03:20:14.753Z,97062.41
2023-04-28T03:22:41.277Z,97059.69
2023-04-28T03:25:08.187Z,97057.84
2023-04-28T03:27:34.752Z,97062.09
2023-04-28T03:30:01.213Z,97060.91
2023-04-28T03:32:27.820Z,97058.06
2023-04-28T03:34:54.383Z,97061.09
2023-04-28T03:37:20.891Z,97067.84
2023-04-28T03:39:47.482Z,97072.06
2023-04-28T03:42:14.073Z,97067.69
2023-04-28T03:44:40.583Z,97057.22
2023-04-28T03:47:07.139Z,97052.84
2023-04-28T03:49:33.656Z,97064.31
2023-04-28T03:52:00.183Z,97058.81
2023-04-28T03:54:26.653Z,97052.75
2023-04-28T03:56:53.179Z,97057.22
2023-04-28T03:59:19.663Z,97054.47
2023-04-28T04:01:46.274Z,97063.66
2023-04-28T04:04:13.339Z,97058.94
2023-04-28T04:06:39.950Z,97056.91
2023-04-28T04:09:06.554Z,97058.34
2023-04-28T04:11:33.057Z,97046.81
2023-04-28T04:13:59.602Z,97048.56
2023-04-28T04:16:26.325Z,97042.22
2023-04-28T04:18:52.916Z,97057.50
2023-04-28T04:21:19.413Z,97067.66
2023-04-28T04:23:46.100Z,97075.22
2023-04-28T04:26:12.592Z,97076.19
2023-04-28T04:28:39.112Z,97071.69
2023-04-28T04:31:05.679Z,97076.50
2023-04-28T04:33:32.205Z,97072.69
2023-04-28T04:35:58.911Z,97065.50
2023-04-28T04:38:25.564Z,97072.25
2023-04-28T04:40:52.394Z,97072.94
2023-04-28T04:43:18.926Z,97072.84
2023-04-28T04:45:45.892Z,97064.31
2023-04-28T04:48:12.488Z,97058.91
2023-04-28T04:50:39.317Z,97058.63
2023-04-28T04:53:05.877Z,97067.84
2023-04-28T04:55:32.520Z,97054.38
2023-04-28T04:57:59.234Z,97063.56
2023-04-28T05:00:25.896Z,97046.91
2023-04-28T05:02:52.507Z,97040.63
2023-04-28T05:05:21.825Z,97043.75
2023-04-28T05:07:49.101Z,97034.50
2023-04-28T05:10:15.616Z,97026.06
2023-04-28T05:12:42.123Z,97031.63
2023-04-28T05:15:09.102Z,97031.91
2023-04-28T05:17:35.668Z,97034.06
2023-04-28T05:20:02.166Z,97028.50
2023-04-28T05:22:28.673Z,97028.91
2023-04-28T05:24:55.214Z,97034.31
2023-04-28T05:27:21.707Z,97040.59
2023-04-28T05:29:48.296Z,97035.16
2023-04-28T05:32:14.855Z,97028.59
2023-04-28T05:34:41.366Z,97028.88
2023-04-28T05:37:07.877Z,97024.06
2023-04-28T05:39:34.353Z,97029.47
2023-04-28T05:42:00.866Z,97022.22
2023-04-28T05:44:27.382Z,97016.66
2023-04-28T05:46:54.079Z,97019.28
2023-04-28T05:49:20.856Z,97020.56
2023-04-28T05:51:47.403Z,97024.38
2023-04-28T05:54:14.283Z,97006.34
2023-04-28T05:56:41.087Z,97013.47
2023-04-28T05:59:07.664Z,97003.88
2023-04-28T06:01:34.222Z,97005.56
2023-04-28T06:04:01.258Z,97014.50
2023-04-28T06:06:28.221Z,97009.34
2023-04-28T06:08:54.972Z,97018.06
2023-04-28T06:11:22.524Z,97022.50
2023-04-28T06:13:50.933Z,97020.91
2023-04-28T06:16:18.905Z,97017.56
2023-04-28T06:18:47.274Z,97012.38
2023-04-28T06:21:16.707Z,97024.25
2023-04-28T06:23:43.337Z,97022.44
2023-04-28T06:26:10.045Z,97021.72
2023-04-28T06:28:36.571Z,97026.78
2023-04-28T06:31:03.141Z,97005.75
2023-04-28T06:33:29.726Z,97007.44
2023-04-28T06:35:56.640Z,97028.25
2023-04-28T06:38:23.353Z,97017.63
2023-04-28T06:40:49.922Z,97010.91
2023-04-28T06:43:16.538Z,97014.94
2023-04-28T06:45:43.089Z,97012.63
2023-04-28T06:48:10.240Z,97006.88
2023-04-28T06:50:37.577Z,96999.09
2023-04-28T06:53:04.102Z,97000.06
2023-04-28T06:55:30.652Z,96997.03
2023-04-28T06:57:57.222Z,97000.59
2023-04-28T07:00:23.992Z,97007.75
2023-04-28T07:02:50.738Z,97005.66
2023-04-28T07:05:17.436Z,96995.66
2023-04-28T07:07:44.139Z,97007.03
2023-04-28T07:10:11.353Z,96999.56
2023-04-28T07:12:37.977Z,96999.66
2023-04-28T07:15:04.894Z,96994.91
2023-04-28T07:17:31.435Z,96996.19
2023-04-28T07:19:57.924Z,96989.88
2023-04-28T07:22:24.603Z,97002.69
2023-04-28T07:24:51.362Z,96996.72
2023-04-28T07:27:17.901Z,96995.84
2023-04-28T07:29:44.404Z,96990.16
2023-04-28T07:32:11.195Z,96993.31
2023-04-28T07:34:37.823Z,96991.84
2023-04-28T07:37:05.247Z,96987.28
2023-04-28T07:39:33.998Z,96987.78
2023-04-28T07:42:02.633Z,96992.41
2023-04-28T07:44:30.116Z,96999.31
2023-04-28T07:46:57.062Z,97001.53
2023-04-28T07:49:23.631Z,96990.50
2023-04-28T07:51:52.178Z,97000.16
2023-04-28T07:54:18.897Z,96998.72
2023-04-28T07:56:45.772Z,97000.66
2023-04-28T07:59:12.361Z,97010.03
2023-04-28T08:01:38.906Z,97006.06
2023-04-28T08:04:05.681Z,97011.53
2023-04-28T08:06:33.639Z,97012.50
2023-04-28T08:09:02.088Z,97014.31
2023-04-28T08:11:28.595Z,97029.41
2023-04-28T08:13:56.812Z,97034.56
2023-04-28T08:16:23.625Z,97040.78
2023-04-28T08:18:50.295Z,97036.47
2023-04-28T08:21:16.810Z,97044.81
2023-04-28T08:23:43.315Z,97043.38
2023-04-28T08:26:09.814Z,97047.44
2023-04-28T08:28:36.313Z,97055.22
2023-04-28T08:31:05.417Z,97065.88
2023-04-28T08:33:31.967Z,97062.31
2023-04-28T08:35:58.561Z,97063.13
2023-04-28T08:38:25.896Z,97060.66
2023-04-28T08:40:52.589Z,97071.38
2023-04-28T08:43:21.510Z,97061.72
2023-04-28T08:45:48.000Z,97067.50
2023-04-28T08:48:22.556Z,97059.22
2023-04-28T08:50:53.541Z,97060.56
2023-04-28T08:53:25.562Z,97062.41
2023-04-28T08:55:56.550Z,97048.63
2023-04-28T08:58:24.805Z,97059.31
2023-04-28T09:00:54.765Z,97050.94
2023-04-28T09:03:22.046Z,97044.22
2023-04-28T09:05:49.107Z,97043.13
2023-04-28T09:08:15.769Z,97035.94
2023-04-28T09:10:42.431Z,97033.44
2023-04-28T09:13:09.013Z,97029.81
2023-04-28T09:15:37.556Z,97032.31
2023-04-28T09:18:06.177Z,97030.75
2023-04-28T09:20:34.146Z,97022.47
2023-04-28T09:23:34.088Z,97013.31
2023-04-28T09:26:02.561Z,97012.63
2023-04-28T09:28:29.863Z,97012.38
2023-04-28T09:30:57.151Z,97009.13
2023-04-28T09:33:23.859Z,97007.09
2023-04-28T09:35:50.516Z,96998.94
2023-04-28T09:38:19.054Z,96996.53
2023-04-28T09:40:51.827Z,96998.56
2023-04-28T09:43:32.288Z,96997.88
2023-04-28T09:46:00.973Z,96989.22
2023-04-28T09:48:28.571Z,96979.88
2023-04-28T09:50:56.633Z,96982.03
2023-04-28T09:53:24.718Z,96971.97
2023-04-28T09:55:53.311Z,96975.88
2023-04-28T09:58:24.537Z,96976.88
2023-04-28T10:00:56.840Z,96975.66
2023-04-28T10:03:27.564Z,96973.41
2023-04-28T10:05:58.008Z,96958.16
2023-04-28T10:08:25.868Z,96955.03
2023-04-28T10:10:56.863Z,96955.50
2023-04-28T10:13:24.475Z,96958.50
2023-04-28T10:15:54.797Z,96956.72
2023-04-28T10:18:23.525Z,96955.28
2023-04-28T10:20:55.764Z,96957.41
2023-04-28T10:23:44.726Z,96945.97
2023-04-28T10:26:14.199Z,96947.88
2023-04-28T10:28:48.495Z,96945.72
2023-04-28T10:31:17.562Z,96942.47
2023-04-28T10:33:44.741Z,96945.91
2023-04-28T10:36:11.615Z,96949.03
2023-04-28T10:39:14.276Z,96939.28
2023-04-28T10:41:41.787Z,96949.13
2023-04-28T10:44:30.153Z,96952.38
2023-04-28T10:47:04.551Z,96947.22
2023-04-28T10:49:58.896Z,96944.69
2023-04-28T10:52:38.096Z,96943.13
2023-04-28T10:55:33.611Z,96949.03
2023-04-28T10:58:15.117Z,96941.69
2023-04-28T11:00:42.573Z,96934.97
2023-04-28T11:03:09.290Z,96931.03
2023-04-28T11:05:36.676Z,96929.34
2023-04-28T11:08:31.696Z,96927.06
2023-04-28T11:11:10.275Z,96930.53
2023-04-28T11:13:37.546Z,96930.06
2023-04-28T11:16:07.012Z,96937.03
2023-04-28T11:19:05.745Z,96933.56
2023-04-28T11:21:33.092Z,96936.44
2023-04-28T11:23:59.820Z,96943.00
2023-04-28T11:26:28.114Z,96929.47
2023-04-28T11:28:56.819Z,96933.06
2023-04-28T11:31:25.310Z,96934.59
2023-04-28T11:33:51.842Z,96932.91
2023-04-28T11:36:26.539Z,96932.78
2023-04-28T11:38:53.087Z,96933.38
2023-04-28T11:41:19.642Z,96928.09
2023-04-28T11:43:47.670Z,96928.38
2023-04-28T11:46:23.052Z,96936.41
2023-04-28T11:49:00.938Z,96938.81
2023-04-28T11:51:32.374Z,96931.97
2023-04-28T11:53:59.632Z,96928.63
2023-04-28T11:56:26.641Z,96923.47
2023-04-28T11:59:04.681Z,96935.47
2023-04-28T12:01:32.586Z,96921.88
2023-04-28T12:03:59.374Z,96923.69
2023-04-28T12:06:26.008Z,96917.78
2023-04-28T12:08:52.876Z,96923.69
2023-04-28T12:11:22.007Z,96923.69
2023-04-28T12:14:06.382Z,96927.53
2023-04-28T12:16:44.657Z,96922.47
2023-04-28T12:19:12.594Z,96923.41
2023-04-28T12:21:40.095Z,96923.53
2023-04-28T12:24:21.385Z,96920.56
2023-04-28T12:26:49.125Z,96933.66
2023-04-28T12:29:39.278Z,96937.13
2023-04-28T12:32:10.687Z,96923.78
2023-04-28T12:34:39.828Z,96914.03
2023-04-28T12:37:06.683Z,96926.19
2023-04-28T12:39:37.055Z,96922.31
2023-04-28T12:42:06.220Z,96919.16
2023-04-28T12:44:37.522Z,96904.59
2023-04-28T12:47:08.458Z,96909.38
2023-04-28T12:49:36.146Z,96909.03
2023-04-28T12:52:04.089Z,96903.41
2023-04-28T12:54:31.173Z,96914.75
2023-04-28T12:56:57.757Z,96902.94
2023-04-28T12:59:24.317Z,96902.81
2023-04-28T13:01:51.229Z,96900.78
2023-04-28T13:04:18.613Z,96901.19
2023-04-28T13:06:45.522Z,96908.66
2023-04-28T13:09:12.427Z,96901.69
2023-04-28T13:11:39.661Z,96902.19
2023-04-28T13:14:06.352Z,96898.81
2023-04-28T13:16:33.837Z,96890.53
2023-04-28T13:19:01.626Z,96894.97
2023-04-28T13:21:28.662Z,96889.31
2023-04-28T13:23:56.670Z,96895.66
2023-04-28T13:26:26.908Z,96883.16
2023-04-28T13:28:53.492Z,96888.72
2023-04-28T13:31:20.131Z,96876.44
2023-04-28T13:33:46.895Z,96880.38
2023-04-28T13:36:13.784Z,96878.66
2023-04-28T13:38:40.351Z,96878.28
2023-04-28T13:41:07.675Z,96868.41
2023-04-28T13:43:34.241Z,96871.69
2023-04-28T13:46:01.596Z,96869.00
2023-04-28T13:48:29.206Z,96858.69
2023-04-28T13:50:55.882Z,96858.78
2023-04-28T13:53:22.553Z,96849.16
2023-04-28T13:55:50.782Z,96841.69
2023-04-28T13:58:17.595Z,96855.25
2023-04-28T14:00:44.140Z,96850.91
2023-04-28T14:03:11.520Z,96845.97
2023-04-28T14:05:48.387Z,96845.97
2023-04-28T14:08:18.226Z,96848.31
2023-04-28T14:10:47.517Z,96842.78
2023-04-28T14:13:14.328Z,96843.16
2023-04-28T14:15:54.652Z,96835.63
2023-04-28T14:18:25.521Z,96835.19
2023-04-28T14:20:52.009Z,96841.34
2023-04-28T14:23:18.508Z,96836.66
2023-04-28T14:25:45.170Z,96836.44
2023-04-28T14:28:11.734Z,96824.34
2023-04-28T14:30:38.478Z,96832.72
2023-04-28T14:33:05.235Z,96833.16
2023-04-28T14:35:32.546Z,96831.56
2023-04-28T14:37:59.111Z,96833.03
2023-04-28T14:40:25.791Z,96822.44
2023-04-28T14:42:53.024Z,96825.53
2023-04-28T14:45:19.958Z,96825.50
2023-04-28T14:47:46.969Z,96814.69
2023-04-28T14:50:14.235Z,96829.03
2023-04-28T14:52:41.300Z,96815.31
2023-04-28T14:55:08.249Z,96822.81
2023-04-28T14:57:35.257Z,96810.81
2023-04-28T15:00:03.915Z,96814.56
2023-04-28T15:02:30.648Z,96810.66
2023-04-28T15:04:57.325Z,96807.16
2023-04-28T15:07:26.516Z,96810.75
2023-04-28T15:09:52.978Z,96799.50
2023-04-28T15:12:21.033Z,96807.66
2023-04-28T15:14:47.731Z,96803.59
2023-04-28T15:17:14.480Z,96805.56
2023-04-28T15:19:40.940Z,96801.22
2023-04-28T15:22:07.525Z,96804.38
2023-04-28T15:24:34.060Z,96798.53
2023-04-28T15:27:00.580Z,96797.81
2023-04-28T15:29:27.087Z,96804.19
2023-04-28T15:31:53.689Z,96794.72
2023-04-28T15:34:20.259Z,96782.75
2023-04-28T15:36:46.870Z,96788.28
2023-04-28T15:39:13.594Z,96779.44
2023-04-28T15:41:40.196Z,96778.19
2023-04-28T15:44:07.397Z,96777.94
2023-04-28T15:46:36.410Z,96785.69
2023-04-28T15:49:03.092Z,96785.22
2023-04-28T15:51:29.668Z,96792.44
2023-04-28T15:53:57.084Z,96804.19
2023-04-28T15:56:23.856Z,96806.94
2023-04-28T15:58:50.968Z,96803.59
2023-04-28T16:01:18.341Z,96802.91
2023-04-28T16:03:47.904Z,96803.84
2023-04-28T16:06:14.819Z,96813.47
2023-04-28T16:08:41.359Z,96809.19
2023-04-28T16:11:08.210Z,96812.09
2023-04-28T16:13:37.209Z,96813.78
2023-04-28T16:16:05.547Z,96814.75
2023-04-28T16:18:33.024Z,96812.09
2023-04-28T16:20:59.840Z,96812.25
2023-04-28T16:23:26.781Z,96833.38
2023-04-28T16:25:54.118Z,96837.09
2023-04-28T16:28:20.765Z,96827.38
2023-04-28T16:30:47.596Z,96808.50
2023-04-28T16:33:14.180Z,96816.69
2023-04-28T16:35:40.804Z,96809.13
2023-04-28T16:38:08.791Z,96795.13
2023-04-28T16:40:35.372Z,96782.34
2023-04-28T16:43:01.940Z,96776.38
2023-04-28T16:45:29.231Z,96770.88
2023-04-28T16:47:56.004Z,96762.84
2023-04-28T16:50:22.507Z,96758.56
2023-04-28T16:52:49.054Z,96763.09
2023-04-28T16:55:15.530Z,96753.16
2023-04-28T16:57:42.224Z,96745.63
2023-04-28T17:00:09.426Z,96755.31
2023-04-28T17:02:35.979Z,96756.31
2023-04-28T17:05:02.637Z,96754.63
2023-04-28T17:07:29.128Z,96743.81
2023-04-28T17:09:55.950Z,96727.63
2023-04-28T17:12:23.369Z,96734.72
2023-04-28T17:14:52.874Z,96721.41
2023-04-28T17:17:19.391Z,96708.31
2023-04-28T17:19:45.941Z,96727.38
2023-04-28T17:22:12.656Z,96747.66
2023-04-28T17:24:39.190Z,96749.69
2023-04-28T17:27:05.950Z,96752.09
2023-04-28T17:29:32.449Z,96750.44
2023-04-28T17:31:58.941Z,96754.00
2023-04-28T17:34:25.449Z,96746.22
2023-04-28T17:36:52.005Z,96752.19
2023-04-28T17:39:19.155Z,96753.19
2023-04-28T17:41:46.887Z,96754.41
2023-04-28T17:44:13.429Z,96762.19
2023-04-28T17:46:40.029Z,96772.72
2023-04-28T17:49:06.626Z,96776.44
2023-04-28T17:51:33.106Z,96785.31
2023-04-28T17:53:59.813Z,96788.91
2023-04-28T17:56:26.997Z,96786.41
2023-04-28T17:58:53.574Z,96786.53
2023-04-28T18:01:20.103Z,96784.00
2023-04-28T18:03:46.785Z,96793.81
2023-04-28T18:06:13.853Z,96793.22
2023-04-28T18:08:40.933Z,96793.22
2023-04-28T18:11:09.995Z,96807.38
2023-04-28T18:13:36.825Z,96802.22
2023-04-28T18:16:04.983Z,96804.84
2023-04-28T18:18:35.282Z,96804.75
2023-04-28T18:21:02.594Z,96791.66
2023-04-28T18:23:30.518Z,96799.81
2023-04-28T18:25:57.225Z,96806.16
2023-04-28T18:28:24.143Z,96816.72
2023-04-28T18:30:50.830Z,96818.53
2023-04-28T18:33:23.099Z,96822.13
2023-04-28T18:36:01.794Z,96826.56
2023-04-28T18:38:28.540Z,96815.16
2023-04-28T18:40:55.069Z,96815.03
2023-04-28T18:43:23.545Z,96814.94
2023-04-28T18:45:50.155Z,96817.56
2023-04-28T18:48:16.832Z,96825.50
2023-04-28T18:50:43.515Z,96834.22
2023-04-28T18:53:10.796Z,96838.75
2023-04-28T18:55:37.441Z,96839.75
2023-04-28T18:58:04.223Z,96839.84
2023-04-28T19:00:32.288Z,96848.22
2023-04-28T19:02:58.923Z,96863.84
2023-04-28T19:05:25.973Z,96855.94
2023-04-28T19:07:52.435Z,96863.00
2023-04-28T19:10:19.112Z,96860.59
2023-04-28T19:12:45.644Z,96863.72
2023-04-28T19:15:12.592Z,96873.09
2023-04-28T19:17:39.654Z,96876.09
2023-04-28T19:20:06.932Z,96880.06
2023-04-28T19:22:38.093Z,96890.13
2023-04-28T19:25:06.848Z,96900.91
2023-04-28T19:27:38.693Z,96905.13
2023-04-28T19:30:07.459Z,96915.31
2023-04-28T19:32:34.589Z,96915.53
2023-04-28T19:35:04.987Z,96926.34
2023-04-28T19:37:35.104Z,96922.50
2023-04-28T19:40:02.833Z,96923.78
2023-04-28T19:42:30.689Z,96937.22
2023-04-28T19:44:58.574Z,96936.88
2023-04-28T19:47:31.483Z,96937.59
2023-04-28T19:49:57.986Z,96936.66
2023-04-28T19:52:24.579Z,96932.00
2023-04-28T19:54:51.958Z,96947.53
2023-04-28T19:57:19.162Z,96951.13
2023-04-28T19:59:46.996Z,96962.44
2023-04-28T20:02:14.137Z,96935.69
2023-04-28T20:04:40.941Z,96918.19
2023-04-28T20:07:08.669Z,96920.22
2023-04-28T20:09:37.297Z,96919.47
2023-04-28T20:12:05.881Z,96914.19
2023-04-28T20:14:33.163Z,96908.22
2023-04-28T20:17:02.357Z,96899.47
2023-04-28T20:19:29.140Z,96900.44
2023-04-28T20:21:56.093Z,96897.66
2023-04-28T20:24:22.912Z,96897.91
2023-04-28T20:26:50.163Z,96902.47
2023-04-28T20:29:16.801Z,96900.31
2023-04-28T20:31:43.420Z,96901.63
2023-04-28T20:34:10.006Z,96904.75
2023-04-28T20:36:37.938Z,96895.63
2023-04-28T20:39:05.218Z,96890.56
2023-04-28T20:41:32.650Z,96882.09
2023-04-28T20:43:59.156Z,96872.38
2023-04-28T20:46:25.672Z,96854.72
2023-04-28T20:48:52.203Z,96839.50
2023-04-28T20:51:18.718Z,96831.34
2023-04-28T20:53:45.233Z,96830.50
2023-04-28T20:56:12.111Z,96830.97
2023-04-28T20:58:42.292Z,96838.41
2023-04-28T21:01:09.400Z,96838.41
2023-04-28T21:03:36.083Z,96846.44
2023-04-28T21:06:02.617Z,96850.28
2023-04-28T21:08:30.179Z,96860.38
2023-04-28T21:10:56.682Z,96865.41
2023-04-28T21:13:23.221Z,96868.13
2023-04-28T21:15:49.936Z,96875.94
2023-04-28T21:18:16.634Z,96865.03
2023-04-28T21:20:43.147Z,96870.97
2023-04-28T21:23:09.940Z,96869.91
2023-04-28T21:25:36.788Z,96865.81
2023-04-28T21:28:03.428Z,96885.69
2023-04-28T21:30:30.123Z,96890.94
2023-04-28T21:32:56.749Z,96893.31
2023-04-28T21:35:23.266Z,96887.31
2023-04-28T21:37:49.729Z,96883.78
2023-04-28T21:40:17.644Z,96882.44
2023-04-28T21:42:45.426Z,96869.59
2023-04-28T21:45:12.004Z,96868.78
2023-04-28T21:47:39.140Z,96865.44
2023-04-28T21:50:07.831Z,96863.63
2023-04-28T21:52:34.358Z,96855.97
2023-04-28T21:55:00.931Z,96862.56
2023-04-28T21:57:27.513Z,96870.72
2023-04-28T21:59:54.000Z,96856.84
2023-04-28T22:02:20.662Z,96857.91
2023-04-28T22:04:47.585Z,96871.56
2023-04-28T22:07:14.120Z,96859.56
2023-04-28T22:09:40.633Z,96859.00
2023-04-28T22:12:07.139Z,96860.19
2023-04-28T22:17:03.098Z,96861.25
2023-04-28T22:19:29.615Z,96860.88
2023-04-28T22:21:56.148Z,96870.94
2023-04-28T22:24:22.647Z,96873.69
2023-04-28T22:26:49.850Z,96867.22
2023-04-28T22:29:16.397Z,96870.94
2023-04-28T22:31:42.955Z,96875.88
2023-04-28T22:34:10.334Z,96868.19
2023-04-28T22:36:37.414Z,96867.47
2023-04-28T22:39:05.521Z,96868.41
2023-04-28T22:41:32.109Z,96865.78
2023-04-28T22:43:58.616Z,96865.78
2023-04-28T22:46:25.837Z,96864.94
2023-04-28T22:48:52.359Z,96869.50
2023-04-28T22:51:18.976Z,96854.88
2023-04-28T22:53:46.521Z,96864.88
2023-04-28T22:56:13.046Z,96859.22
2023-04-28T22:58:39.563Z,96855.03
2023-04-28T23:01:06.660Z,96858.41
2023-04-28T23:03:34.004Z,96855.53
2023-04-28T23:06:00.636Z,96856.25
2023-04-28T23:08:27.145Z,96857.81
2023-04-28T23:10:56.545Z,96856.03
2023-04-28T23:13:23.353Z,96859.31
2023-04-28T23:15:49.876Z,96859.19
2023-04-28T23:18:16.456Z,96860.97
2023-04-28T23:20:43.006Z,96857.63
2023-04-28T23:23:09.530Z,96851.81
2023-04-28T23:25:36.375Z,96847.63
2023-04-28T23:28:03.235Z,96854.91
2023-04-28T23:30:29.748Z,96851.69
2023-04-28T23:32:56.542Z,96849.25
2023-04-28T23:35:23.311Z,96845.66
2023-04-28T23:37:49.777Z,96843.16
2023-04-28T23:40:16.371Z,96844.84
2023-04-28T23:42:42.811Z,96831.38
2023-04-28T23:45:10.175Z,96829.31
2023-04-28T23:47:36.945Z,96826.53
2023-04-28T23:50:04.968Z,96831.66
2023-04-28T23:52:32.038Z,96827.56
2023-04-28T23:54:59.072Z,96827.75
2023-04-28T23:57:25.779Z,96829.56
2023-04-28T23:59:52.389Z,96819.66
